Lantana, Florida
Current Conditions -  °F | °C
As of 8:53 PM on Friday 24 Oct 2014 (Local Time) from KPBI Reporting Station
Broken Clouds Broken Clouds  
Wind Chill: 77°   Ceiling: 3000
Heat Index: 79°   Visibility: 10mi
Dew Point: 66°   Wind: 13mph
Humidity: 69%   Direction: 20°NNE
Pressure: 29.84"   Gusts: NA
Location:  26.5758°N, 80.0835°W
Report Text: KPBI 250053Z 02011KT 10SM BKN030 BKN044 BKN065 25/19 A2984 RMK AO2 SLP106 T02500189
Loading
Personal Weather Stations






























Interactive Weather Map
Tropical Storm Tracking
New forecast layout! Learn more

10-Day Weather Forecast

Advertisements
Track Severe Weather on mobile